Time;durP1;ratioP1;P1;durP2;ratioP2;P2;SDS_P1;SDS_P2;PMS_P1;PMS_P2;Temp;Humidity;BMP_temperature;BMP_pressure;BME280_temperature;BME280_humidity;BME280_pressure;Samples;Min_cycle;Max_cycle;Signal;HPM_P1;HPM_P2
2022/08/06 00:02:25;;;;;;;17.57;11.33;;;;;;;22.14;55.88;100398.81;4928652;29;20590;-80
2022/08/06 00:05:01;;;;;;;15.35;10.57;;;;;;;22.27;56.07;100416.09;4916423;29;20056;-79
2022/08/06 00:07:30;;;;;;;14.25;10.82;;;;;;;22.22;56.01;100410.94;4916565;29;20245;-80
2022/08/06 00:10:03;;;;;;;12.23;10.60;;;;;;;22.20;56.35;100430.50;4900423;29;20143;-79
2022/08/06 00:12:33;;;;;;;14.35;11.48;;;;;;;22.08;56.48;100427.34;4917819;29;20094;-78
2022/08/06 00:15:04;;;;;;;14.45;11.48;;;;;;;21.97;56.52;100426.00;4916308;29;20107;-78
2022/08/06 00:17:42;;;;;;;15.57;10.93;;;;;;;21.78;57.30;100431.94;4916516;29;20044;-78
2022/08/06 00:20:11;;;;;;;13.70;11.25;;;;;;;21.65;57.47;100412.00;4916348;29;20063;-77
2022/08/06 00:22:58;;;;;;;14.52;11.40;;;;;;;21.67;57.98;100442.94;4916444;29;20063;-79
2022/08/06 00:25:28;;;;;;;16.63;12.25;;;;;;;21.56;58.01;100418.50;4916517;29;20064;-79
2022/08/06 00:28:10;;;;;;;17.33;12.18;;;;;;;21.44;58.45;100424.22;4900926;29;20052;-77
2022/08/06 00:30:38;;;;;;;17.73;11.77;;;;;;;21.49;58.57;100435.59;4923061;29;20119;-79
2022/08/06 00:33:05;;;;;;;17.08;11.75;;;;;;;21.51;58.94;100438.16;4920625;29;20143;-79
2022/08/06 00:35:36;;;;;;;14.48;11.23;;;;;;;21.50;59.04;100441.75;4920170;29;20486;-79
2022/08/06 00:38:04;;;;;;;14.00;10.98;;;;;;;21.37;59.17;100414.69;4919888;29;20060;-77
2022/08/06 00:40:36;;;;;;;16.73;11.88;;;;;;;21.44;59.36;100451.66;4919773;29;20056;-79
2022/08/06 00:43:18;;;;;;;14.60;11.43;;;;;;;21.24;59.45;100416.88;4920459;29;20063;-79
2022/08/06 00:45:46;;;;;;;19.73;12.23;;;;;;;21.35;59.76;100446.59;4920476;29;20111;-79
2022/08/06 00:48:13;;;;;;;18.40;12.38;;;;;;;21.39;59.80;100442.94;4940948;29;20415;-78
2022/08/06 00:51:02;;;;;;;15.40;10.98;;;;;;;21.31;59.87;100433.47;4924485;29;20056;-79
2022/08/06 00:53:30;;;;;;;14.80;11.25;;;;;;;21.39;60.04;100455.38;4934557;29;20083;-79
2022/08/06 00:56:01;;;;;;;14.38;11.48;;;;;;;21.25;59.92;100427.44;4924928;29;20063;-81
2022/08/06 00:58:37;;;;;;;15.02;11.43;;;;;;;21.34;60.08;100444.88;4922064;29;20514;-80
2022/08/06 01:01:10;;;;;;;17.23;12.35;;;;;;;21.25;60.18;100440.72;4921134;29;20510;-78
2022/08/06 01:03:45;;;;;;;17.70;12.13;;;;;;;21.03;60.54;100411.28;4920516;29;20059;-79
2022/08/06 01:06:21;;;;;;;14.43;12.90;;;;;;;21.20;60.51;100447.97;4919645;29;20564;-79
2022/08/06 01:09:10;;;;;;;18.50;12.88;;;;;;;21.08;60.54;100435.09;4917941;29;20056;-80
2022/08/06 01:11:38;;;;;;;14.05;12.55;;;;;;;20.95;61.00;100425.72;4917963;29;20051;-77
2022/08/06 01:14:07;;;;;;;18.00;12.15;;;;;;;21.05;61.21;100440.47;4919151;29;20111;-77
2022/08/06 01:16:57;;;;;;;14.95;12.82;;;;;;;20.99;61.24;100452.16;4922365;29;20478;-78
2022/08/06 01:19:28;;;;;;;14.43;12.90;;;;;;;20.94;61.70;100440.78;4920319;29;20507;-77
2022/08/06 01:22:49;;;;;;;14.82;13.02;;;;;;;20.89;61.71;100448.03;4933994;29;20060;-80
2022/08/06 01:26:02;;;;;;;18.77;13.52;;;;;;;20.80;61.95;100440.31;4918062;29;20052;-78
2022/08/06 01:28:45;;;;;;;17.50;13.73;;;;;;;20.84;61.98;100448.19;4908761;29;20056;-80
2022/08/06 01:31:26;;;;;;;18.65;13.63;;;;;;;20.90;62.12;100438.28;4918319;29;20067;-79
2022/08/06 01:34:09;;;;;;;15.57;12.95;;;;;;;20.58;62.04;100400.28;4918893;29;20076;-79
2022/08/06 01:36:45;;;;;;;17.83;13.65;;;;;;;20.90;62.33;100452.41;4918862;29;20435;-79
2022/08/06 01:39:20;;;;;;;15.93;13.73;;;;;;;20.79;62.23;100433.28;4917804;29;20510;-79
2022/08/06 01:42:10;;;;;;;17.83;13.88;;;;;;;20.82;62.45;100444.72;4918943;29;20056;-79
2022/08/06 01:44:43;;;;;;;19.55;14.30;;;;;;;20.59;62.44;100405.56;4918957;29;20064;-79
2022/08/06 01:47:18;;;;;;;15.65;12.82;;;;;;;20.84;62.57;100444.63;4918791;29;20525;-79
2022/08/06 01:49:55;;;;;;;18.58;13.73;;;;;;;20.85;62.55;100444.59;4918945;29;20063;-79
2022/08/06 01:52:34;;;;;;;18.48;13.32;;;;;;;20.72;62.84;100435.25;4902062;29;20088;-79
2022/08/06 01:55:13;;;;;;;18.40;13.85;;;;;;;20.88;62.67;100450.72;4919042;29;20056;-79
2022/08/06 01:57:50;;;;;;;19.75;13.82;;;;;;;20.92;62.70;100463.88;4901764;29;20537;-79
2022/08/06 02:00:42;;;;;;;17.42;13.70;;;;;;;20.95;62.60;100454.94;4921210;29;20056;-80
2022/08/06 02:03:22;;;;;;;17.45;13.82;;;;;;;20.92;62.55;100460.34;4944314;29;20055;-79
2022/08/06 02:05:57;;;;;;;17.05;13.25;;;;;;;20.90;62.87;100446.25;4937778;28;20510;-79
2022/08/06 02:08:30;;;;;;;16.92;13.60;;;;;;;20.95;62.78;100449.63;4937663;29;20063;-78
2022/08/06 02:11:10;;;;;;;19.00;13.88;;;;;;;21.10;62.65;100467.78;4937429;29;20099;-79
2022/08/06 02:14:01;;;;;;;15.73;12.90;;;;;;;21.15;62.52;100483.56;4937206;29;20074;-78
2022/08/06 02:16:36;;;;;;;15.90;12.82;;;;;;;21.12;62.61;100459.75;4937315;29;20057;-78
2022/08/06 02:19:14;;;;;;;19.60;12.90;;;;;;;21.15;62.59;100464.97;4937064;29;20210;-78
2022/08/06 02:21:46;;;;;;;17.05;12.55;;;;;;;21.05;62.45;100438.69;4937304;29;20208;-79
2022/08/06 02:24:23;;;;;;;16.40;13.38;;;;;;;21.10;62.62;100469.53;4937110;29;20099;-79
2022/08/06 02:26:55;;;;;;;14.80;12.65;;;;;;;21.01;62.76;100447.66;4937839;29;20055;-77
2022/08/06 02:29:25;;;;;;;14.65;12.57;;;;;;;21.06;62.54;100459.03;4939242;29;20063;-77
2022/08/06 02:32:16;;;;;;;17.67;13.45;;;;;;;21.09;62.63;100455.41;4919672;29;20062;-78
2022/08/06 02:34:46;;;;;;;16.60;12.80;;;;;;;21.20;62.40;100458.59;4935548;29;20521;-79
2022/08/06 02:37:20;;;;;;;15.65;12.68;;;;;;;21.42;62.06;100471.22;4936868;28;20083;-79
2022/08/06 02:40:15;;;;;;;15.02;12.10;;;;;;;21.56;61.42;100461.03;4936589;29;20062;-78
2022/08/06 02:42:52;;;;;;;14.45;12.32;;;;;;;21.77;60.98;100478.06;4936919;29;20083;-78
2022/08/06 02:45:31;;;;;;;14.88;12.88;;;;;;;22.02;60.21;100490.53;4936682;29;20059;-78
2022/08/06 02:48:18;;;;;;;14.48;12.40;;;;;;;22.27;59.64;100479.97;4936648;29;20075;-79
2022/08/06 02:51:04;;;;;;;14.70;12.30;;;;;;;22.44;58.61;100434.13;4936460;29;20063;-78
2022/08/06 02:54:05;;;;;;;14.93;11.88;;;;;;;23.01;57.51;100458.63;4936835;29;20078;-79
2022/08/06 02:56:37;;;;;;;14.43;11.95;;;;;;;24.33;54.23;100458.53;4937243;29;20074;-79
2022/08/06 02:59:26;;;;;;;13.68;11.65;;;;;;;25.63;50.69;100458.75;4936621;29;20051;-79
2022/08/06 03:02:09;;;;;;;15.98;12.35;;;;;;;26.54;48.00;100469.25;4935205;29;20395;-79
2022/08/06 03:04:50;;;;;;;13.00;11.57;;;;;;;27.00;46.76;100470.41;4936546;29;20138;-79
2022/08/06 03:07:31;;;;;;;13.00;10.70;;;;;;;27.34;45.82;100461.31;4950917;29;20051;-79
2022/08/06 03:10:01;;;;;;;17.05;11.85;;;;;;;27.91;44.29;100461.63;4939918;29;20051;-81
2022/08/06 03:12:40;;;;;;;13.80;11.77;;;;;;;28.19;42.92;100423.22;4945785;29;20115;-79
2022/08/06 03:15:12;;;;;;;16.42;11.70;;;;;;;27.14;45.20;100433.78;4936002;29;20087;-79
2022/08/06 03:18:04;;;;;;;13.07;11.57;;;;;;;25.92;48.59;100466.22;4936397;29;20083;-79
2022/08/06 03:20:35;;;;;;;13.02;11.68;;;;;;;25.48;49.83;100468.41;4919904;29;20505;-78
2022/08/06 03:23:07;;;;;;;13.70;11.40;;;;;;;24.85;51.24;100466.88;4935811;29;20430;-79
2022/08/06 03:25:38;;;;;;;15.70;12.73;;;;;;;24.32;52.69;100451.44;4937236;29;20506;-78
2022/08/06 03:28:10;;;;;;;15.25;12.15;;;;;;;25.21;50.62;100482.19;4938478;29;20063;-78
2022/08/06 03:30:48;;;;;;;15.57;11.88;;;;;;;24.98;49.75;100367.44;4936492;29;20526;-79
2022/08/06 03:33:24;;;;;;;15.57;11.40;;;;;;;27.19;45.99;100476.47;4935690;29;20093;-79
2022/08/06 03:36:14;;;;;;;14.07;11.80;;;;;;;29.13;41.73;100467.63;4935316;29;20067;-79
2022/08/06 03:39:01;;;;;;;14.23;11.25;;;;;;;28.71;42.32;100459.44;4935956;29;20075;-80
2022/08/06 03:41:34;;;;;;;18.83;12.65;;;;;;;27.13;45.44;100474.97;4935577;29;20075;-79
2022/08/06 03:44:24;;;;;;;15.38;11.68;;;;;;;27.11;46.34;100474.19;4935585;28;20055;-79
2022/08/06 03:47:20;;;;;;;13.48;11.30;;;;;;;26.89;46.01;100446.88;4936076;29;20059;-78
2022/08/06 03:50:11;;;;;;;15.02;11.38;;;;;;;26.17;47.85;100469.44;4935485;29;20560;-79
2022/08/06 03:52:50;;;;;;;15.63;12.00;;;;;;;26.13;48.14;100466.91;4935809;29;20070;-80
2022/08/06 03:55:24;;;;;;;16.23;12.40;;;;;;;27.12;46.18;100473.22;4935411;29;20095;-79
2022/08/06 03:58:02;;;;;;;15.85;13.00;;;;;;;28.08;43.57;100478.56;4935646;29;20048;-79
2022/08/06 04:00:44;;;;;;;17.10;13.55;;;;;;;27.15;45.68;100459.69;4935397;29;20470;-79
2022/08/06 04:03:15;;;;;;;15.88;14.18;;;;;;;27.15;46.38;100466.88;4934356;29;20482;-79
2022/08/06 04:05:45;;;;;;;18.10;13.70;;;;;;;28.16;44.08;100474.44;4935692;29;20057;-79
2022/08/06 04:08:16;;;;;;;16.48;13.35;;;;;;;28.12;44.19;100461.31;4935496;29;20098;-79
2022/08/06 04:10:46;;;;;;;14.45;12.80;;;;;;;27.74;44.81;100453.66;4935802;29;20494;-79
2022/08/06 04:13:27;;;;;;;17.73;13.27;;;;;;;27.59;45.50;100484.94;4935136;29;20403;-79
2022/08/06 04:16:16;;;;;;;17.30;12.70;;;;;;;27.09;46.63;100465.38;4935666;29;20062;-80
2022/08/06 04:19:06;;;;;;;18.65;12.32;;;;;;;27.09;46.72;100468.06;4926536;29;20056;-79
2022/08/06 04:21:35;;;;;;;15.52;12.40;;;;;;;26.99;47.11;100477.56;4929688;29;20056;-78
2022/08/06 04:24:26;;;;;;;15.90;12.38;;;;;;;26.71;47.65;100473.69;4916301;29;20056;-79
2022/08/06 04:27:02;;;;;;;15.93;11.63;;;;;;;26.67;47.68;100461.44;4933338;29;20458;-79
2022/08/06 04:29:39;;;;;;;16.23;11.90;;;;;;;26.70;47.97;100493.41;4901250;29;20063;-79
2022/08/06 04:32:26;;;;;;;14.48;11.57;;;;;;;26.75;48.03;100475.28;4916070;29;20509;-79
2022/08/06 04:35:06;;;;;;;15.73;11.30;;;;;;;27.10;47.08;100485.91;4916323;29;20107;-80
2022/08/06 04:37:55;;;;;;;14.80;10.65;;;;;;;27.57;45.91;100478.78;4916182;29;20059;-81
2022/08/06 04:40:29;;;;;;;12.10;9.80;;;;;;;27.84;45.04;100451.31;4915690;29;20426;-80
2022/08/06 04:43:09;;;;;;;13.73;10.93;;;;;;;28.05;45.06;100476.03;4916179;29;20068;-80
2022/08/06 04:45:41;;;;;;;15.93;9.80;;;;;;;27.82;44.84;100412.97;4916494;29;20083;-80
2022/08/06 04:48:33;;;;;;;15.85;10.38;;;;;;;28.05;44.49;100462.59;4916116;29;20088;-79
2022/08/06 04:51:08;;;;;;;13.27;9.98;;;;;;;27.91;44.79;100456.25;4915539;29;20430;-80
2022/08/06 04:53:41;;;;;;;14.88;9.43;;;;;;;27.57;45.70;100468.91;4915002;29;20052;-79
2022/08/06 04:56:25;;;;;;;16.35;9.40;;;;;;;27.60;45.89;100475.06;4916041;29;20590;-80
2022/08/06 04:59:05;;;;;;;11.95;9.38;;;;;;;27.53;45.71;100453.97;4916378;29;20063;-79
2022/08/06 05:01:36;;;;;;;12.35;9.85;;;;;;;27.59;45.44;100466.16;4916238;29;20095;-80
2022/08/06 05:04:25;;;;;;;14.80;9.10;;;;;;;27.72;45.11;100467.16;4915914;29;20067;-79
2022/08/06 05:07:10;;;;;;;14.07;9.38;;;;;;;28.02;44.22;100460.13;4916131;29;20048;-79
2022/08/06 05:09:40;;;;;;;10.27;8.93;;;;;;;28.24;44.02;100465.06;4915969;29;20056;-79
2022/08/06 05:12:37;;;;;;;15.45;9.65;;;;;;;28.44;43.13;100459.34;4916221;29;20071;-79
2022/08/06 05:15:10;;;;;;;11.68;8.77;;;;;;;28.50;43.16;100459.00;4900927;29;20085;-79
2022/08/06 05:17:50;;;;;;;12.38;9.20;;;;;;;28.52;42.53;100465.13;4919776;29;20180;-78
2022/08/06 05:20:20;;;;;;;11.80;9.05;;;;;;;28.55;41.99;100445.25;4918957;29;20404;-81
2022/08/06 05:23:04;;;;;;;10.15;8.40;;;;;;;28.68;42.08;100454.28;4933924;29;20146;-80
2022/08/06 05:25:49;;;;;;;10.35;8.80;;;;;;;28.94;41.32;100455.31;4918986;29;20434;-80
2022/08/06 05:28:24;;;;;;;12.18;8.85;;;;;;;29.08;40.92;100456.25;4924847;29;20029;-79
2022/08/06 05:30:55;;;;;;;12.82;8.68;;;;;;;29.20;40.04;100456.34;4926785;29;20966;-79
2022/08/06 05:33:30;;;;;;;11.88;8.65;;;;;;;29.26;39.83;100451.53;4919004;29;20048;-79
2022/08/06 05:36:08;;;;;;;9.75;8.40;;;;;;;29.27;39.91;100437.13;4918978;29;20052;-80
2022/08/06 05:38:47;;;;;;;10.73;8.57;;;;;;;29.12;39.83;100404.88;4918825;29;20048;-80
2022/08/06 05:41:30;;;;;;;15.50;8.90;;;;;;;29.47;39.38;100452.81;4918359;29;20154;-80
2022/08/06 05:44:02;;;;;;;11.93;8.80;;;;;;;29.71;39.20;100442.28;4918612;29;20141;-80
2022/08/06 05:46:37;;;;;;;11.68;8.35;;;;;;;29.52;39.35;100394.16;4933083;29;20517;-80
2022/08/06 05:49:14;;;;;;;14.70;9.05;;;;;;;29.82;38.89;100430.78;4918821;29;20143;-80
2022/08/06 05:52:17;;;;;;;12.55;9.05;;;;;;;29.99;39.18;100441.25;4918359;29;20060;-80
2022/08/06 05:54:58;;;;;;;13.75;8.90;;;;;;;30.05;39.04;100441.78;4918689;29;20056;-80
2022/08/06 05:57:44;;;;;;;10.98;9.70;;;;;;;30.10;38.61;100428.88;4918537;29;20056;-80
2022/08/06 06:00:26;;;;;;;12.48;8.93;;;;;;;29.92;38.89;100442.66;4931981;29;20578;-80
2022/08/06 06:03:15;;;;;;;;;;;;;;;29.96;39.51;100433.38;4918997;29;20078;-80
2022/08/06 06:05:59;;;;;;;12.45;9.35;;;;;;;30.09;39.32;100441.47;4918885;29;19934;-81
2022/08/06 06:08:37;;;;;;;18.55;10.27;;;;;;;30.24;38.95;100436.84;4918229;29;20052;-80
2022/08/06 06:11:28;;;;;;;11.55;9.18;;;;;;;30.03;38.76;100401.50;4918417;29;20064;-80
2022/08/06 06:14:29;;;;;;;15.82;9.20;;;;;;;30.27;38.73;100442.03;4917964;29;20388;-80
2022/08/06 06:17:28;;;;;;;14.57;9.38;;;;;;;30.14;38.61;100403.47;4932944;29;20056;-79
2022/08/06 06:20:13;;;;;;;11.40;8.52;;;;;;;30.24;38.69;100439.53;4932369;29;20055;-79
2022/08/06 06:23:07;;;;;;;17.88;8.98;;;;;;;30.32;38.83;100430.97;4918159;29;20052;-80
2022/08/06 06:25:47;;;;;;;13.68;8.98;;;;;;;30.41;38.44;100427.59;4918129;29;20059;-80
2022/08/06 06:28:43;;;;;;;14.55;9.07;;;;;;;30.48;38.39;100439.69;4917955;29;20071;-79
2022/08/06 06:31:38;;;;;;;15.75;9.07;;;;;;;30.66;38.57;100432.13;4917475;29;20056;-80
2022/08/06 06:34:42;;;;;;;9.45;7.35;;;;;;;30.66;37.72;100432.13;4895068;29;20087;-78
2022/08/06 06:37:47;;;;;;;13.68;7.55;;;;;;;30.52;38.05;100432.25;4919196;29;20155;-79
2022/08/06 06:40:48;;;;;;;14.70;7.18;;;;;;;30.55;38.06;100432.03;4898367;29;20063;-79
2022/08/06 06:43:47;;;;;;;10.80;7.32;;;;;;;30.69;37.99;100439.97;4907259;29;20052;-80
2022/08/06 06:46:37;;;;;;;11.02;8.57;;;;;;;30.32;37.49;100374.38;4932241;29;20060;-79
2022/08/06 06:49:24;;;;;;;12.07;7.10;;;;;;;30.80;37.39;100439.22;4917458;29;20055;-80
2022/08/06 06:52:23;;;;;;;8.55;7.13;;;;;;;30.75;37.51;100442.25;4917547;29;20055;-79
2022/08/06 06:55:05;;;;;;;8.63;7.00;;;;;;;30.75;37.55;100428.75;4917615;29;20067;-80
2022/08/06 06:58:12;;;;;;;8.40;6.90;;;;;;;30.66;37.88;100428.56;4917412;29;20052;-79
2022/08/06 07:00:53;;;;;;;11.35;7.18;;;;;;;30.74;37.79;100424.34;4916293;29;20064;-80
2022/08/06 07:03:45;;;;;;;19.83;7.07;;;;;;;30.81;37.09;100428.31;4916652;29;20087;-80
2022/08/06 07:06:15;;;;;;;8.40;6.65;;;;;;;30.71;36.98;100408.38;4935890;29;20433;-80
2022/08/06 07:09:07;;;;;;;11.18;6.88;;;;;;;30.74;37.40;100416.25;4948025;29;20547;-79
2022/08/06 07:11:44;;;;;;;10.48;6.40;;;;;;;30.70;36.95;100422.84;4936337;29;20051;-80
2022/08/06 07:14:35;;;;;;;10.43;6.90;;;;;;;30.68;36.98;100424.78;4950950;29;20571;-79
2022/08/06 07:17:05;;;;;;;11.20;7.80;;;;;;;30.81;36.93;100412.13;4936259;29;20059;-80
2022/08/06 07:19:56;;;;;;;15.30;7.07;;;;;;;30.99;36.40;100412.66;4935634;29;20433;-80
2022/08/06 07:22:25;;;;;;;9.75;6.43;;;;;;;31.17;35.94;100420.34;4935378;29;20429;-80
2022/08/06 07:24:59;;;;;;;9.70;7.10;;;;;;;30.98;36.09;100404.69;4936028;29;20102;-79
2022/08/06 07:27:33;;;;;;;8.25;7.30;;;;;;;31.14;35.72;100412.50;4935928;28;20121;-80
2022/08/06 07:30:20;;;;;;;9.43;6.57;;;;;;;31.04;35.88;100382.66;4950947;29;20059;-80
2022/08/06 07:32:52;;;;;;;8.98;6.55;;;;;;;31.21;35.63;100387.66;4936105;29;20062;-80
2022/08/06 07:35:22;;;;;;;8.83;6.67;;;;;;;31.15;35.69;100380.03;4936193;29;20060;-80
2022/08/06 07:37:52;;;;;;;10.18;6.90;;;;;;;31.32;35.88;100402.16;4936198;29;20058;-80
2022/08/06 07:40:26;;;;;;;10.82;6.90;;;;;;;31.21;35.24;100392.19;4929157;29;20499;-80
2022/08/06 07:43:05;;;;;;;15.63;6.57;;;;;;;31.11;35.89;100413.59;4916808;29;20051;-80
2022/08/06 07:45:51;;;;;;;7.90;6.20;;;;;;;30.70;35.91;100368.94;4918350;29;20062;-80
2022/08/06 07:48:28;;;;;;;8.38;5.90;;;;;;;31.04;35.87;100404.25;4916706;29;20143;-80
2022/08/06 07:51:02;;;;;;;7.85;6.05;;;;;;;31.19;35.37;100407.63;4916460;29;20428;-80
2022/08/06 07:53:36;;;;;;;11.13;6.10;;;;;;;31.28;35.49;100401.56;4931127;29;20095;-80
2022/08/06 07:56:26;;;;;;;10.65;6.00;;;;;;;31.34;35.32;100398.41;4916240;29;20056;-79
2022/08/06 07:58:57;;;;;;;10.68;6.35;;;;;;;31.31;35.51;100405.84;4917094;29;20088;-79
2022/08/06 08:01:26;;;;;;;6.75;5.97;;;;;;;31.20;35.98;100387.78;4916881;29;20486;-80
2022/08/06 08:07:06;;;;;;;11.98;6.03;;;;;;;31.60;35.15;100387.50;4926551;29;20467;-79
2022/08/06 08:09:56;;;;;;;9.75;5.93;;;;;;;31.42;35.02;100366.31;4928069;29;20056;-79
2022/08/06 08:12:33;;;;;;;7.53;5.90;;;;;;;31.36;35.14;100350.56;4928116;29;20086;-80
2022/08/06 08:15:08;;;;;;;6.53;5.82;;;;;;;31.65;34.86;100390.69;4937609;29;20044;-79
2022/08/06 08:17:46;;;;;;;6.70;5.90;;;;;;;31.16;35.47;100391.66;4930323;29;20051;-80
2022/08/06 08:20:30;;;;;;;10.98;6.07;;;;;;;30.97;36.28;100395.72;4929566;29;20163;-79
2022/08/06 08:23:05;;;;;;;10.07;6.00;;;;;;;31.10;36.08;100376.78;4928845;29;20085;-79
2022/08/06 08:25:36;;;;;;;9.73;6.22;;;;;;;31.10;35.55;100381.34;4912663;29;20088;-79
2022/08/06 08:28:12;;;;;;;11.68;6.10;;;;;;;30.98;36.19;100400.16;4928422;29;20111;-79
2022/08/06 08:30:46;;;;;;;13.43;6.32;;;;;;;31.01;36.25;100394.53;4916448;29;20063;-80
2022/08/06 08:33:20;;;;;;;8.32;6.32;;;;;;;31.06;35.70;100360.94;4917171;29;20052;-80
2022/08/06 08:35:49;;;;;;;8.32;5.88;;;;;;;31.39;35.31;100390.81;4899713;29;20078;-79
2022/08/06 08:38:33;;;;;;;8.13;6.20;;;;;;;31.43;35.76;100394.19;4916795;29;20048;-79
2022/08/06 08:41:26;;;;;;;10.05;6.53;;;;;;;31.52;35.55;100373.72;4916443;29;20095;-80
2022/08/06 08:44:25;;;;;;;11.90;6.28;;;;;;;31.60;34.90;100385.66;4931150;29;20059;-80
2022/08/06 08:46:58;;;;;;;7.80;5.95;;;;;;;31.67;34.29;100375.25;4916743;29;20056;-79
2022/08/06 08:49:54;;;;;;;6.43;5.65;;;;;;;31.75;34.21;100371.94;4916611;29;20075;-79
2022/08/06 08:52:31;;;;;;;7.43;5.82;;;;;;;31.90;34.04;100365.38;4919701;29;20068;-81
2022/08/06 08:55:07;;;;;;;8.75;5.78;;;;;;;31.91;34.03;100358.13;4925866;29;20622;-81
2022/08/06 08:57:57;;;;;;;6.35;5.68;;;;;;;31.97;33.68;100368.44;4919485;29;20052;-82
2022/08/06 09:00:45;;;;;;;9.73;5.55;;;;;;;32.17;33.74;100386.66;4919421;29;20554;-81
2022/08/06 09:03:23;;;;;;;7.82;6.32;;;;;;;31.87;34.09;100379.09;4932689;29;20475;-81
2022/08/06 09:05:51;;;;;;;6.55;5.95;;;;;;;31.74;34.15;100364.81;4919201;29;20439;-80
2022/08/06 09:08:20;;;;;;;8.55;6.38;;;;;;;32.00;33.98;100363.66;4919468;29;20499;-81
2022/08/06 09:11:10;;;;;;;7.93;5.32;;;;;;;32.23;33.04;100358.31;4934186;29;20111;-81
2022/08/06 09:14:09;;;;;;;6.60;5.53;;;;;;;32.16;32.84;100319.22;4919288;29;20056;-80
2022/08/06 09:16:43;;;;;;;8.18;5.63;;;;;;;32.28;32.06;100302.03;4932972;29;20062;-81
2022/08/06 09:19:17;;;;;;;8.57;5.50;;;;;;;32.58;31.96;100336.56;4919459;29;20055;-80
2022/08/06 09:21:47;;;;;;;7.05;5.22;;;;;;;32.78;32.12;100369.22;4918915;29;20433;-81
2022/08/06 09:24:18;;;;;;;8.07;5.65;;;;;;;32.59;32.07;100330.19;4919222;29;20056;-80
2022/08/06 09:27:16;;;;;;;10.23;5.40;;;;;;;32.57;32.08;100334.00;4919093;29;20088;-81
2022/08/06 09:30:07;;;;;;;7.40;5.47;;;;;;;32.63;31.51;100334.34;4919447;29;20052;-81
2022/08/06 09:32:56;;;;;;;9.75;5.78;;;;;;;32.81;31.98;100369.84;4918856;29;20067;-81
2022/08/06 09:35:31;;;;;;;7.97;5.90;;;;;;;33.15;31.90;100366.19;4918930;29;20467;-81
2022/08/06 09:38:15;;;;;;;7.00;5.50;;;;;;;33.06;31.51;100340.75;4932081;29;20064;-80
2022/08/06 09:41:10;;;;;;;7.18;5.65;;;;;;;33.18;31.54;100350.56;4918839;29;20144;-82
2022/08/06 09:43:46;;;;;;;7.82;5.70;;;;;;;33.20;31.17;100359.44;4918833;29;20056;-81
2022/08/06 09:46:40;;;;;;;8.80;6.13;;;;;;;33.22;31.73;100341.22;4919140;29;20529;-80
2022/08/06 09:49:14;;;;;;;8.57;6.15;;;;;;;33.55;31.46;100363.69;4918814;29;20052;-81
2022/08/06 09:52:15;;;;;;;6.53;6.00;;;;;;;33.72;30.70;100350.59;4919143;29;20083;-81
2022/08/06 09:54:48;;;;;;;7.68;5.70;;;;;;;33.71;30.55;100328.09;4918531;29;20504;-80
2022/08/06 09:57:25;;;;;;;8.40;6.03;;;;;;;33.81;30.46;100331.69;4918656;29;20098;-80
2022/08/06 10:00:06;;;;;;;8.02;6.15;;;;;;;34.07;30.25;100350.22;4924281;29;20115;-80
2022/08/06 10:02:41;;;;;;;8.85;5.40;;;;;;;34.03;29.74;100351.50;4924061;29;20558;-80
2022/08/06 10:05:19;;;;;;;9.57;5.18;;;;;;;33.74;30.10;100299.88;4918671;29;20062;-81
2022/08/06 10:08:16;;;;;;;6.72;5.20;;;;;;;33.93;30.06;100340.63;4918266;29;20102;-80
2022/08/06 10:10:51;;;;;;;10.25;5.32;;;;;;;33.67;30.51;100321.22;4918276;29;20059;-80
2022/08/06 10:13:23;;;;;;;8.23;5.47;;;;;;;33.59;30.32;100307.44;4926366;29;20055;-80
2022/08/06 10:15:56;;;;;;;12.30;5.70;;;;;;;33.69;30.42;100334.59;4938018;29;20056;-80
2022/08/06 10:18:38;;;;;;;7.20;4.88;;;;;;;33.63;30.79;100328.72;4940410;29;20056;-81
2022/08/06 10:21:29;;;;;;;8.45;5.50;;;;;;;33.70;30.18;100333.63;4938196;29;20083;-80
2022/08/06 10:24:11;;;;;;;11.45;5.78;;;;;;;33.49;30.72;100330.88;4952276;29;20470;-80
2022/08/06 10:26:42;;;;;;;6.70;5.50;;;;;;;33.60;30.92;100336.25;4937205;29;20060;-82
2022/08/06 10:29:13;;;;;;;9.85;5.78;;;;;;;33.77;30.80;100322.16;4937257;29;20070;-80
2022/08/06 10:31:41;;;;;;;7.25;5.50;;;;;;;33.77;30.24;100294.16;4936645;29;20099;-81
2022/08/06 10:34:15;;;;;;;9.15;5.97;;;;;;;33.82;30.30;100327.16;4936972;29;20056;-81
2022/08/06 10:36:49;;;;;;;9.25;5.47;;;;;;;33.84;30.27;100319.75;4952109;29;20111;-81
2022/08/06 10:39:27;;;;;;;9.13;5.40;;;;;;;33.91;30.34;100311.94;4937113;29;20059;-81
2022/08/06 10:42:18;;;;;;;10.63;5.50;;;;;;;33.90;30.46;100305.66;4937031;29;20056;-79
2022/08/06 10:44:50;;;;;;;9.23;5.68;;;;;;;34.01;29.75;100293.84;4937532;29;20130;-81
2022/08/06 10:47:22;;;;;;;9.30;5.72;;;;;;;33.84;29.80;100292.66;4937569;29;20102;-81
2022/08/06 10:50:15;;;;;;;6.97;5.30;;;;;;;33.99;30.30;100304.00;4937379;29;20147;-80
2022/08/06 10:52:58;;;;;;;9.38;5.88;;;;;;;34.19;30.05;100299.56;4939524;29;20119;-81
2022/08/06 10:55:29;;;;;;;6.68;5.82;;;;;;;34.61;29.42;100310.22;4938887;29;20056;-80
2022/08/06 10:58:11;;;;;;;5.80;4.97;;;;;;;34.76;28.73;100300.75;4937306;29;20055;-81
2022/08/06 11:00:42;;;;;;;8.77;5.47;;;;;;;34.52;29.46;100294.78;4936595;29;20095;-81
2022/08/06 11:03:35;;;;;;;6.22;5.63;;;;;;;34.56;29.68;100298.94;4919024;29;20060;-80
2022/08/06 11:06:27;;;;;;;6.07;5.47;;;;;;;34.34;29.63;100297.31;4918195;29;20056;-81
2022/08/06 11:09:19;;;;;;;7.55;5.75;;;;;;;33.93;29.96;100282.88;4931490;29;20056;-80
2022/08/06 11:12:29;;;;;;;8.15;5.55;;;;;;;33.81;29.98;100284.78;4917029;29;20052;-81
2022/08/06 11:15:00;;;;;;;10.02;5.35;;;;;;;33.67;30.57;100282.44;4917126;29;20047;-81
2022/08/06 11:17:43;;;;;;;7.47;5.65;;;;;;;33.73;30.33;100284.59;4917131;29;20459;-81
2022/08/06 11:20:36;;;;;;;7.90;5.57;;;;;;;33.74;30.37;100272.78;4917350;29;20056;-81
2022/08/06 11:23:13;;;;;;;15.38;5.57;;;;;;;33.76;30.27;100273.50;4917216;29;20099;-80
2022/08/06 11:26:04;;;;;;;5.95;5.45;;;;;;;33.74;30.13;100273.63;4917127;29;20510;-80
2022/08/06 11:28:33;;;;;;;6.90;5.47;;;;;;;33.77;29.99;100264.38;4916805;29;20499;-81
2022/08/06 11:31:04;;;;;;;9.10;5.87;;;;;;;33.76;29.63;100273.50;4900147;29;20156;-81
2022/08/06 11:33:35;;;;;;;6.43;5.32;;;;;;;33.79;29.63;100262.41;4916818;29;20059;-81
2022/08/06 11:36:10;;;;;;;6.20;5.53;;;;;;;33.68;29.57;100252.50;4919431;29;20056;-80
2022/08/06 11:38:43;;;;;;;7.15;5.50;;;;;;;33.64;29.26;100260.06;4901025;29;20056;-80
2022/08/06 11:41:27;;;;;;;7.47;5.65;;;;;;;33.55;29.28;100259.94;4917830;29;20052;-80
2022/08/06 11:44:20;;;;;;;6.32;5.43;;;;;;;33.48;29.51;100248.78;4917318;29;20047;-80
2022/08/06 11:47:12;;;;;;;6.20;5.60;;;;;;;33.49;29.88;100250.50;4916740;29;20398;-80
2022/08/06 11:49:46;;;;;;;10.45;6.28;;;;;;;33.47;29.77;100238.94;4916732;29;20052;-81
2022/08/06 11:52:30;;;;;;;8.77;6.03;;;;;;;33.61;30.08;100249.47;4916707;29;20056;-80
2022/08/06 11:55:13;;;;;;;8.88;5.43;;;;;;;33.76;29.61;100259.97;4916791;29;20115;-80
2022/08/06 11:58:15;;;;;;;7.72;5.63;;;;;;;33.92;29.18;100241.34;4916533;29;20060;-80
2022/08/06 12:01:01;;;;;;;10.70;6.50;;;;;;;34.05;29.31;100233.88;4916439;29;20064;-81
2022/08/06 12:03:50;;;;;;;9.10;5.78;;;;;;;34.12;29.10;100234.19;4916484;29;20060;-81
2022/08/06 12:06:25;;;;;;;7.38;5.70;;;;;;;33.84;28.79;100211.41;4916656;29;20486;-81
2022/08/06 12:09:12;;;;;;;6.82;6.05;;;;;;;33.71;29.27;100224.28;4916576;29;20149;-79
2022/08/06 12:11:51;;;;;;;6.93;5.88;;;;;;;33.76;29.43;100231.03;4916576;29;20060;-81
2022/08/06 12:14:43;;;;;;;6.90;5.60;;;;;;;33.81;29.30;100230.59;4885518;29;20058;-81
2022/08/06 12:17:22;;;;;;;9.30;5.60;;;;;;;33.85;29.12;100232.91;4922831;29;20127;-79
2022/08/06 12:20:10;;;;;;;8.27;6.18;;;;;;;33.80;29.02;100248.72;4916896;29;20055;-80
2022/08/06 12:22:51;;;;;;;10.25;5.90;;;;;;;33.39;28.74;100182.78;4916110;29;20396;-80